Time;durP1;ratioP1;P1;durP2;ratioP2;P2;SDS_P1;SDS_P2;PMS_P1;PMS_P2;Temp;Humidity;BMP_temperature;BMP_pressure;BME280_temperature;BME280_humidity;BME280_pressure;Samples;Min_cycle;Max_cycle;Signal;HPM_P1;HPM_P2
2023/02/12 00:01:47;;;;;;;44.50;19.35;;;7.60;99.90;;;;;;5010918;28;20476;-77
2023/02/12 00:04:13;;;;;;;47.20;20.40;;;7.60;99.90;;;;;;5009421;28;20487;-77
2023/02/12 00:06:39;;;;;;;47.15;19.38;;;7.60;99.90;;;;;;5011130;28;20029;-77
2023/02/12 00:09:04;;;;;;;42.10;19.60;;;7.50;99.90;;;;;;5009926;28;20045;-77
2023/02/12 00:11:30;;;;;;;42.85;20.40;;;7.60;99.90;;;;;;5009558;28;20058;-76
2023/02/12 00:13:56;;;;;;;41.53;19.85;;;7.60;99.90;;;;;;5009600;28;20502;-77
2023/02/12 00:16:25;;;;;;;60.55;23.00;;;7.60;99.90;;;;;;5009542;28;20133;-77
2023/02/12 00:18:53;;;;;;;38.72;19.08;;;7.60;99.90;;;;;;5013152;28;20718;-77
2023/02/12 00:21:19;;;;;;;41.83;19.38;;;7.60;99.90;;;;;;5012622;28;20042;-75
2023/02/12 00:23:45;;;;;;;52.75;21.10;;;7.60;99.90;;;;;;5013117;28;20018;-75
2023/02/12 00:26:13;;;;;;;41.38;18.95;;;7.60;99.90;;;;;;5014338;28;20037;-76
2023/02/12 00:28:39;;;;;;;44.97;20.75;;;7.60;99.90;;;;;;5013908;28;20085;-76
2023/02/12 00:31:07;;;;;;;44.40;19.67;;;7.60;99.90;;;;;;5014419;28;20054;-76
2023/02/12 00:33:33;;;;;;;40.42;17.55;;;7.60;99.90;;;;;;5020821;28;20029;-76
2023/02/12 00:35:58;;;;;;;39.10;17.13;;;7.60;99.90;;;;;;5013235;28;20486;-77
2023/02/12 00:38:24;;;;;;;38.17;16.98;;;7.60;99.90;;;;;;5013007;28;20034;-77
2023/02/12 00:40:50;;;;;;;37.22;15.68;;;7.60;99.90;;;;;;5014766;28;20018;-77
2023/02/12 00:43:15;;;;;;;37.17;17.08;;;7.70;99.90;;;;;;5014474;28;20018;-77
2023/02/12 00:45:41;;;;;;;43.97;17.85;;;7.70;99.90;;;;;;5014052;28;20030;-75
2023/02/12 00:48:06;;;;;;;37.92;17.60;;;7.60;99.90;;;;;;5013445;28;20022;-76
2023/02/12 00:50:32;;;;;;;42.45;17.50;;;7.70;99.90;;;;;;5012928;28;20022;-77
2023/02/12 00:52:57;;;;;;;40.78;17.05;;;7.70;99.90;;;;;;5014256;28;20025;-78
2023/02/12 00:55:23;;;;;;;46.17;17.33;;;7.70;99.90;;;;;;5014002;28;20041;-75
2023/02/12 00:57:49;;;;;;;41.85;16.27;;;7.70;99.90;;;;;;5012408;28;20053;-77
2023/02/12 01:00:15;;;;;;;39.30;16.52;;;7.60;99.90;;;;;;5012462;28;20479;-77
2023/02/12 01:02:41;;;;;;;45.33;17.13;;;7.70;99.90;;;;;;5012045;28;20034;-78
2023/02/12 01:05:07;;;;;;;36.63;16.83;;;7.70;99.90;;;;;;5012381;28;20033;-76
2023/02/12 01:07:33;;;;;;;42.58;16.00;;;7.70;99.90;;;;;;5012681;28;20030;-78
2023/02/12 01:09:58;;;;;;;43.28;16.88;;;7.70;99.90;;;;;;5012868;28;20027;-77
2023/02/12 01:12:24;;;;;;;44.90;17.20;;;7.50;99.90;;;;;;5013562;28;20475;-75
2023/02/12 01:14:52;;;;;;;38.40;16.98;;;7.60;99.90;;;;;;5012110;28;20053;-76
2023/02/12 01:17:18;;;;;;;38.55;15.65;;;7.60;99.90;;;;;;5012829;28;20053;-76
2023/02/12 01:19:43;;;;;;;48.05;17.42;;;7.70;99.90;;;;;;5013307;28;20022;-77
2023/02/12 01:22:09;;;;;;;39.38;16.27;;;7.60;99.90;;;;;;5013254;28;20026;-74
2023/02/12 01:24:35;;;;;;;37.58;16.70;;;7.70;99.90;;;;;;5013052;28;20034;-76
2023/02/12 01:27:00;;;;;;;44.10;17.42;;;7.70;99.90;;;;;;5013635;28;20030;-76
2023/02/12 01:29:26;;;;;;;43.72;18.38;;;7.60;99.90;;;;;;5012694;28;20026;-76
2023/02/12 01:31:51;;;;;;;41.72;17.83;;;7.60;99.90;;;;;;5011577;28;20052;-76
2023/02/12 01:34:17;;;;;;;52.75;19.40;;;7.60;99.90;;;;;;5011907;28;20034;-76
2023/02/12 01:36:42;;;;;;;43.65;19.70;;;7.60;99.90;;;;;;5011581;28;20026;-75
2023/02/12 01:39:10;;;;;;;46.17;19.85;;;7.60;99.90;;;;;;5011386;28;20021;-73
2023/02/12 01:41:39;;;;;;;47.13;18.70;;;7.60;99.90;;;;;;5019100;28;20117;-77
2023/02/12 01:44:20;;;;;;;41.45;18.08;;;7.60;99.90;;;;;;5011692;28;20022;-75
2023/02/12 01:46:48;;;;;;;44.78;18.95;;;7.60;99.90;;;;;;5012783;28;20027;-76
2023/02/12 01:49:41;;;;;;;42.15;17.58;;;7.60;99.90;;;;;;5011706;28;20057;-75
2023/02/12 01:52:14;;;;;;;42.55;16.77;;;7.60;99.90;;;;;;5011005;28;20094;-78
2023/02/12 01:54:41;;;;;;;46.22;18.88;;;7.70;99.90;;;;;;5011822;28;20049;-77
2023/02/12 01:57:08;;;;;;;55.63;19.10;;;7.70;99.90;;;;;;5011013;28;20044;-76
2023/02/12 01:59:35;;;;;;;48.10;18.40;;;7.70;99.90;;;;;;5018780;28;20030;-76
2023/02/12 02:02:02;;;;;;;47.92;18.25;;;7.60;99.90;;;;;;5011810;28;20042;-77
2023/02/12 02:04:42;;;;;;;44.67;19.17;;;7.60;99.90;;;;;;5010936;28;20022;-75
2023/02/12 02:07:10;;;;;;;51.20;20.13;;;7.60;99.90;;;;;;5012469;28;20086;-76
2023/02/12 02:09:38;;;;;;;55.53;19.42;;;7.60;99.90;;;;;;5011119;28;20018;-74
2023/02/12 02:14:51;;;;;;;59.47;19.83;;;7.60;99.90;;;;;;5011974;28;20102;-75
2023/02/12 02:17:17;;;;;;;54.20;18.92;;;7.60;99.90;;;;;;5010397;28;20022;-77
2023/02/12 02:20:01;;;;;;;61.10;19.33;;;7.50;99.90;;;;;;5010559;28;20033;-77
2023/02/12 02:22:30;;;;;;;59.70;18.80;;;7.50;99.90;;;;;;5011978;28;20030;-76
2023/02/12 02:25:35;;;;;;;45.17;18.80;;;7.50;99.90;;;;;;5010208;28;20034;-76
2023/02/12 02:28:06;;;;;;;57.73;18.83;;;7.50;99.90;;;;;;4999278;28;20030;-76
2023/02/12 02:30:49;;;;;;;73.47;19.85;;;7.50;99.90;;;;;;4999649;28;20028;-74
2023/02/12 02:33:24;;;;;;;44.80;18.55;;;7.50;99.90;;;;;;5002190;28;20085;-75
2023/02/12 02:36:22;;;;;;;58.92;19.45;;;7.50;99.90;;;;;;5010300;28;20355;-76
2023/02/12 02:38:48;;;;;;;61.92;18.63;;;7.50;99.90;;;;;;5009269;28;20065;-76
2023/02/12 02:41:17;;;;;;;58.90;18.75;;;7.50;99.90;;;;;;5007990;28;20023;-75
2023/02/12 02:43:47;;;;;;;76.70;20.45;;;7.50;99.90;;;;;;5015130;28;20036;-76
2023/02/12 02:46:26;;;;;;;56.97;20.08;;;7.50;99.90;;;;;;5010032;28;20080;-75
2023/02/12 02:48:57;;;;;;;73.35;19.00;;;7.50;99.90;;;;;;5009922;28;20085;-75
2023/02/12 02:51:33;;;;;;;58.17;19.02;;;7.60;99.90;;;;;;5008657;28;20425;-76
2023/02/12 02:54:20;;;;;;;81.25;19.63;;;7.50;99.90;;;;;;5007923;28;20029;-75
2023/02/12 02:56:49;;;;;;;54.20;18.88;;;7.50;99.90;;;;;;5009045;28;20038;-74
2023/02/12 02:59:24;;;;;;;67.43;19.40;;;7.60;99.90;;;;;;5009351;28;20034;-78
2023/02/12 03:01:53;;;;;;;71.65;20.20;;;7.50;99.90;;;;;;5007319;28;20460;-75
2023/02/12 03:04:31;;;;;;;57.47;19.23;;;7.50;99.90;;;;;;5009189;28;20049;-78
2023/02/12 03:07:07;;;;;;;83.18;20.40;;;7.50;99.90;;;;;;5009368;28;20133;-77
2023/02/12 03:09:42;;;;;;;82.03;18.98;;;7.50;99.90;;;;;;5008600;28;20034;-77
2023/02/12 03:12:19;;;;;;;68.78;17.75;;;7.40;99.90;;;;;;5009967;28;20027;-78
2023/02/12 03:15:00;;;;;;;70.50;18.10;;;7.40;99.90;;;;;;5014618;28;20050;-77
2023/02/12 03:17:31;;;;;;;76.68;18.02;;;7.50;99.90;;;;;;5009603;28;20053;-77
2023/02/12 03:20:06;;;;;;;84.13;19.20;;;7.40;99.90;;;;;;5008315;28;20495;-76
2023/02/12 03:22:37;;;;;;;60.28;18.05;;;7.40;99.90;;;;;;5007075;28;20062;-75
2023/02/12 03:25:13;;;;;;;77.93;18.48;;;7.40;99.90;;;;;;5008137;28;20026;-78
2023/02/12 03:27:45;;;;;;;77.93;18.50;;;7.30;99.90;;;;;;5008384;28;20093;-77
2023/02/12 03:30:12;;;;;;;76.47;18.10;;;7.30;99.90;;;;;;5009618;28;20029;-77
2023/02/12 03:32:57;;;;;;;61.70;18.40;;;7.30;99.90;;;;;;5010708;28;20114;-77
2023/02/12 03:35:25;;;;;;;;;;;7.30;99.90;;;;;;5009608;28;20057;-76
2023/02/12 03:38:00;;;;;;;82.15;18.13;;;7.30;99.90;;;;;;5009231;28;19910;-76
2023/02/12 03:40:33;;;;;;;126.47;18.63;;;7.30;99.90;;;;;;5013738;28;20034;-77
2023/02/12 03:43:12;;;;;;;77.05;18.67;;;7.30;99.90;;;;;;5008884;28;20083;-76
2023/02/12 03:45:43;;;;;;;81.85;18.13;;;7.30;99.90;;;;;;5009773;28;20117;-79
2023/02/12 03:48:42;;;;;;;76.47;18.98;;;7.30;99.90;;;;;;5008337;28;20098;-77
2023/02/12 03:51:29;;;;;;;76.10;19.08;;;7.30;99.90;;;;;;5005534;28;20026;-77
2023/02/12 03:53:56;;;;;;;85.68;19.55;;;7.30;99.90;;;;;;5012811;28;20056;-75
2023/02/12 03:56:30;;;;;;;85.03;19.60;;;7.30;99.90;;;;;;5012857;28;20517;-76
2023/02/12 03:58:56;;;;;;;;;;;7.30;99.90;;;;;;5013149;28;20050;-77
2023/02/12 04:01:22;;;;;;;92.07;20.25;;;7.30;99.90;;;;;;5013148;28;20133;-77
2023/02/12 04:03:47;;;;;;;94.07;20.13;;;7.30;99.90;;;;;;5011298;28;20036;-77
2023/02/12 04:06:27;;;;;;;109.38;21.27;;;7.30;99.90;;;;;;5011048;28;20042;-76
2023/02/12 04:08:56;;;;;;;62.88;19.13;;;7.30;99.90;;;;;;5017612;28;20056;-76
2023/02/12 04:11:50;;;;;;;97.07;20.98;;;7.30;99.90;;;;;;5017191;28;20049;-77
2023/02/12 04:14:21;;;;;;;77.85;20.65;;;7.40;99.90;;;;;;5010934;28;20121;-77
2023/02/12 04:16:58;;;;;;;86.57;21.10;;;7.40;99.90;;;;;;5010726;28;20093;-77
2023/02/12 04:19:47;;;;;;;74.40;20.52;;;7.40;99.90;;;;;;5011921;28;20037;-75
2023/02/12 04:22:28;;;;;;;74.45;19.08;;;7.40;99.90;;;;;;5012500;28;20044;-78
2023/02/12 04:25:41;;;;;;;63.47;20.08;;;7.40;99.90;;;;;;5009763;28;20404;-77
2023/02/12 04:28:53;;;;;;;53.13;19.17;;;7.40;99.90;;;;;;5010504;28;20054;-76
2023/02/12 04:31:28;;;;;;;56.65;20.30;;;7.40;99.90;;;;;;5003906;28;20037;-77
2023/02/12 04:34:27;;;;;;;52.47;18.77;;;7.40;99.90;;;;;;5011976;28;20050;-76
2023/02/12 04:37:00;;;;;;;59.15;19.13;;;7.40;99.90;;;;;;5012050;28;20501;-77
2023/02/12 04:39:29;;;;;;;54.10;19.13;;;7.40;99.90;;;;;;5012065;28;20033;-76
2023/02/12 04:42:01;;;;;;;48.20;18.98;;;7.40;99.90;;;;;;5011727;28;20072;-77
2023/02/12 04:44:30;;;;;;;56.45;19.02;;;7.40;99.90;;;;;;5011600;28;20036;-75
2023/02/12 04:46:56;;;;;;;55.28;18.75;;;7.50;99.90;;;;;;5011377;28;20182;-75
2023/02/12 04:49:22;;;;;;;61.33;19.42;;;7.50;99.90;;;;;;5011477;28;20114;-75
2023/02/12 04:51:48;;;;;;;61.60;19.35;;;7.50;99.90;;;;;;5013431;28;20022;-76
2023/02/12 04:54:15;;;;;;;58.78;20.10;;;7.50;99.90;;;;;;5011423;28;20066;-76
2023/02/12 04:56:41;;;;;;;52.97;20.38;;;7.40;99.90;;;;;;5012782;28;20034;-76
2023/02/12 04:59:08;;;;;;;69.30;19.65;;;7.40;99.90;;;;;;5011842;28;20050;-77
2023/02/12 05:01:35;;;;;;;56.13;19.38;;;7.40;99.90;;;;;;5011189;28;20125;-75
2023/02/12 05:04:01;;;;;;;64.72;19.92;;;7.50;99.90;;;;;;5011073;28;20468;-76
2023/02/12 05:06:29;;;;;;;65.00;20.95;;;7.50;99.90;;;;;;5011447;28;20098;-76
2023/02/12 05:08:55;;;;;;;83.88;21.02;;;7.40;99.90;;;;;;5011062;28;20028;-75
2023/02/12 05:11:20;;;;;;;60.35;20.60;;;7.40;99.90;;;;;;5011328;28;20029;-77
2023/02/12 05:13:50;;;;;;;80.80;20.42;;;7.40;99.90;;;;;;5011153;28;20050;-76
2023/02/12 05:16:17;;;;;;;68.55;20.48;;;7.40;99.90;;;;;;5012715;28;20060;-77
2023/02/12 05:18:42;;;;;;;71.93;20.30;;;7.40;99.90;;;;;;5011330;28;20041;-76
2023/02/12 05:21:08;;;;;;;63.00;19.27;;;7.40;99.90;;;;;;5012162;28;20034;-77
2023/02/12 05:23:36;;;;;;;70.05;20.77;;;7.40;99.90;;;;;;5011417;28;20018;-76
2023/02/12 05:26:04;;;;;;;59.20;20.02;;;7.40;99.90;;;;;;5012356;28;20023;-76
2023/02/12 05:28:30;;;;;;;76.80;21.80;;;7.40;99.90;;;;;;5012180;28;20499;-77
2023/02/12 05:31:00;;;;;;;66.70;22.10;;;7.40;99.90;;;;;;5012958;28;20018;-76
2023/02/12 05:33:26;;;;;;;65.63;20.67;;;7.40;99.90;;;;;;5012696;28;20050;-75
2023/02/12 05:35:51;;;;;;;61.47;20.38;;;7.40;99.90;;;;;;5012203;28;20080;-76
2023/02/12 05:38:17;;;;;;;60.22;21.90;;;7.40;99.90;;;;;;5011254;28;20481;-75
2023/02/12 05:40:43;;;;;;;65.65;22.30;;;7.40;99.90;;;;;;5012646;28;20045;-76
2023/02/12 05:43:09;;;;;;;56.97;22.55;;;7.40;99.90;;;;;;5012360;28;20022;-75
2023/02/12 05:45:35;;;;;;;63.28;21.20;;;7.40;99.90;;;;;;5011446;28;20033;-76
2023/02/12 05:48:01;;;;;;;83.65;22.95;;;7.40;99.90;;;;;;5011374;28;20139;-75
2023/02/12 05:50:27;;;;;;;86.75;24.08;;;7.30;99.90;;;;;;5011746;28;20042;-73
2023/02/12 05:52:52;;;;;;;61.33;22.65;;;7.40;99.90;;;;;;5011115;28;20049;-76
2023/02/12 05:55:18;;;;;;;87.47;23.52;;;7.40;99.90;;;;;;5010673;28;20044;-75
2023/02/12 05:57:43;;;;;;;72.22;22.70;;;7.40;99.90;;;;;;5011853;28;20099;-76
2023/02/12 06:00:10;;;;;;;95.55;24.02;;;7.30;99.90;;;;;;5012848;28;20026;-77
2023/02/12 06:02:36;;;;;;;64.50;22.90;;;7.30;99.90;;;;;;5010969;28;20483;-75
2023/02/12 06:05:02;;;;;;;69.32;24.13;;;7.30;99.90;;;;;;5012101;28;20030;-76
2023/02/12 06:07:27;;;;;;;85.28;23.55;;;7.30;99.90;;;;;;5011001;28;20025;-75
2023/02/12 06:09:56;;;;;;;90.13;24.33;;;7.30;99.90;;;;;;5010933;28;20069;-74
2023/02/12 06:12:22;;;;;;;99.15;24.63;;;7.30;99.90;;;;;;5012383;28;20030;-74
2023/02/12 06:14:47;;;;;;;118.40;24.70;;;7.30;99.90;;;;;;5008914;28;20047;-76
2023/02/12 06:17:13;;;;;;;68.63;22.45;;;7.40;99.90;;;;;;5011886;28;20459;-75
2023/02/12 06:19:39;;;;;;;90.20;24.50;;;7.40;99.90;;;;;;5012137;28;20031;-75
2023/02/12 06:22:04;;;;;;;87.85;24.38;;;7.40;99.90;;;;;;5010785;28;20190;-75
2023/02/12 06:24:30;;;;;;;83.30;23.75;;;7.40;99.90;;;;;;5011275;28;20022;-75
2023/02/12 06:26:56;;;;;;;91.50;23.35;;;7.30;99.90;;;;;;5010555;28;20093;-75
2023/02/12 06:29:22;;;;;;;114.95;22.65;;;7.40;99.90;;;;;;5011742;28;20077;-77
2023/02/12 06:31:48;;;;;;;89.75;24.10;;;7.30;99.90;;;;;;5011472;28;20027;-75
2023/02/12 06:34:17;;;;;;;90.70;23.63;;;7.50;99.90;;;;;;5017354;28;20030;-76
2023/02/12 06:36:45;;;;;;;84.80;23.27;;;7.30;99.90;;;;;;5009965;28;20022;-75
2023/02/12 06:39:12;;;;;;;123.03;24.70;;;7.30;99.90;;;;;;5017254;28;20022;-75
2023/02/12 06:41:38;;;;;;;65.25;22.65;;;7.30;99.90;;;;;;5011463;28;20035;-75
2023/02/12 06:44:04;;;;;;;105.45;24.42;;;7.30;99.90;;;;;;5010506;28;20029;-76
2023/02/12 06:46:30;;;;;;;99.82;23.83;;;7.20;99.90;;;;;;5010269;28;20018;-76
2023/02/12 06:48:58;;;;;;;100.50;23.83;;;7.30;99.90;;;;;;5009799;28;20022;-77
2023/02/12 06:51:25;;;;;;;76.07;25.23;;;7.30;99.90;;;;;;5009841;28;20022;-76
2023/02/12 06:53:52;;;;;;;74.05;24.20;;;7.30;99.90;;;;;;5011361;28;20060;-75
2023/02/12 06:56:20;;;;;;;79.85;23.80;;;7.30;99.90;;;;;;5009636;28;20046;-73
2023/02/12 06:58:50;;;;;;;79.78;24.02;;;7.30;99.90;;;;;;5008832;28;20065;-74
2023/02/12 07:01:19;;;;;;;77.60;23.90;;;7.30;99.90;;;;;;5008610;28;20131;-73
2023/02/12 07:03:53;;;;;;;70.38;23.40;;;7.30;99.90;;;;;;5009364;28;20026;-73
2023/02/12 07:06:19;;;;;;;77.18;24.25;;;7.40;99.90;;;;;;5013447;28;20097;-74
2023/02/12 07:08:45;;;;;;;94.35;24.30;;;7.40;99.90;;;;;;5011206;28;20561;-73
2023/02/12 07:11:10;;;;;;;69.35;23.08;;;7.40;99.90;;;;;;5016632;28;20094;-73
2023/02/12 07:13:36;;;;;;;65.78;23.73;;;7.40;99.90;;;;;;5011529;28;20046;-74
2023/02/12 07:16:04;;;;;;;81.68;24.67;;;7.40;99.90;;;;;;5004117;28;20026;-75
2023/02/12 07:18:30;;;;;;;73.55;23.38;;;7.20;99.90;;;;;;5001344;28;20026;-75
2023/02/12 07:20:56;;;;;;;60.85;22.65;;;7.40;99.90;;;;;;5006975;28;20060;-74
2023/02/12 07:23:21;;;;;;;73.05;22.80;;;7.40;99.90;;;;;;5008938;28;20053;-74
2023/02/12 07:25:58;;;;;;;73.25;23.23;;;7.40;99.90;;;;;;5010834;28;20018;-73
2023/02/12 07:28:24;;;;;;;70.40;22.67;;;7.40;99.90;;;;;;5019234;28;20487;-73
2023/02/12 07:30:50;;;;;;;61.97;23.50;;;7.40;99.90;;;;;;5012741;28;20018;-74
2023/02/12 07:33:16;;;;;;;66.15;22.75;;;7.40;99.90;;;;;;5009017;28;20492;-73
2023/02/12 07:35:41;;;;;;;63.20;22.63;;;7.40;99.90;;;;;;5006834;28;20049;-75
2023/02/12 07:38:07;;;;;;;59.25;22.35;;;7.40;99.90;;;;;;5008427;28;20029;-73
2023/02/12 07:40:32;;;;;;;57.50;23.33;;;7.40;99.90;;;;;;5012163;28;20048;-75
2023/02/12 07:42:58;;;;;;;63.67;22.23;;;7.40;99.90;;;;;;5011036;28;20038;-73
2023/02/12 07:45:23;;;;;;;62.72;23.52;;;7.40;99.90;;;;;;5012663;28;20033;-73
2023/02/12 07:47:49;;;;;;;63.08;22.98;;;7.40;99.90;;;;;;5014192;28;20026;-73
2023/02/12 07:50:15;;;;;;;59.88;22.35;;;7.50;99.90;;;;;;5014115;28;20041;-74
2023/02/12 07:52:41;;;;;;;53.90;21.40;;;7.50;99.90;;;;;;5012507;28;20030;-73
2023/02/12 07:55:07;;;;;;;52.83;21.88;;;7.50;99.90;;;;;;5013248;28;20542;-73
2023/02/12 07:57:34;;;;;;;61.25;23.10;;;7.50;99.90;;;;;;5013346;28;20054;-73
2023/02/12 07:59:59;;;;;;;50.05;20.67;;;7.50;99.90;;;;;;5014001;28;20407;-72
2023/02/12 08:02:25;;;;;;;53.20;22.13;;;7.50;99.90;;;;;;5011815;28;20048;-73
2023/02/12 08:04:55;;;;;;;55.58;21.33;;;7.50;99.90;;;;;;5012836;28;20105;-72
2023/02/12 08:07:20;;;;;;;50.13;20.52;;;7.50;99.90;;;;;;5014472;28;20034;-72
2023/02/12 08:09:46;;;;;;;52.67;21.55;;;7.50;99.90;;;;;;5014070;28;20050;-73
2023/02/12 08:12:11;;;;;;;50.35;20.08;;;7.50;99.90;;;;;;5014197;28;20030;-72
2023/02/12 08:14:37;;;;;;;42.38;19.70;;;7.50;99.90;;;;;;5014352;28;20049;-73
2023/02/12 08:17:03;;;;;;;39.88;17.48;;;7.50;99.90;;;;;;5010405;28;20040;-72
2023/02/12 08:19:28;;;;;;;42.85;18.02;;;7.50;99.90;;;;;;5013551;28;20362;-73
2023/02/12 08:21:55;;;;;;;40.42;17.60;;;7.50;99.90;;;;;;5011613;28;20038;-72
2023/02/12 08:24:21;;;;;;;44.00;17.73;;;7.60;99.90;;;;;;5012338;28;20019;-72
2023/02/12 08:26:47;;;;;;;39.03;17.05;;;7.60;99.90;;;;;;5014655;28;20087;-71
2023/02/12 08:29:18;;;;;;;35.53;16.23;;;7.60;99.90;;;;;;5014233;28;20026;-70
2023/02/12 08:31:47;;;;;;;37.60;17.02;;;7.60;99.90;;;;;;5011872;28;20081;-71
2023/02/12 08:34:19;;;;;;;49.30;21.80;;;7.60;99.90;;;;;;5012465;28;20077;-72
2023/02/12 08:36:46;;;;;;;59.47;27.33;;;7.60;99.90;;;;;;5014499;28;20037;-70
2023/02/12 08:39:13;;;;;;;33.75;17.20;;;7.70;99.90;;;;;;5012762;28;20057;-70
2023/02/12 08:41:41;;;;;;;33.13;16.02;;;7.70;99.90;;;;;;5013995;28;20030;-70
2023/02/12 08:44:07;;;;;;;34.80;16.92;;;7.70;99.90;;;;;;5010811;28;20105;-72
2023/02/12 08:46:38;;;;;;;33.92;16.13;;;7.70;99.90;;;;;;5013840;28;20057;-72
2023/02/12 08:49:10;;;;;;;33.35;15.10;;;7.70;99.90;;;;;;5010074;28;20044;-73
2023/02/12 08:51:39;;;;;;;34.35;15.57;;;7.80;99.90;;;;;;5011434;28;20030;-73
2023/02/12 08:54:06;;;;;;;28.83;13.05;;;7.80;99.90;;;;;;5012231;28;20034;-72
2023/02/12 08:56:33;;;;;;;27.38;14.02;;;7.80;99.90;;;;;;5012998;28;20034;-73
2023/02/12 08:59:00;;;;;;;29.35;13.38;;;7.80;99.90;;;;;;5013782;28;20129;-71
2023/02/12 09:01:27;;;;;;;28.52;13.80;;;7.80;99.90;;;;;;5013370;28;20027;-72
2023/02/12 09:03:53;;;;;;;30.75;14.70;;;7.80;99.90;;;;;;5009356;28;20598;-71
2023/02/12 09:06:21;;;;;;;28.33;13.40;;;7.80;99.90;;;;;;5009150;28;20062;-71
2023/02/12 09:08:47;;;;;;;27.08;12.07;;;7.80;99.90;;;;;;5012206;28;20485;-70
2023/02/12 09:11:17;;;;;;;23.20;10.68;;;7.80;99.90;;;;;;5011329;28;20126;-71
2023/02/12 09:13:48;;;;;;;26.90;11.18;;;7.70;99.90;;;;;;5008927;28;20060;-74
2023/02/12 09:16:14;;;;;;;22.63;10.65;;;7.70;99.90;;;;;;5007573;28;20030;-74
2023/02/12 09:18:40;;;;;;;18.25;9.30;;;7.70;99.90;;;;;;5005707;28;20026;-72
2023/02/12 09:21:08;;;;;;;18.10;8.90;;;7.70;99.90;;;;;;5005763;28;20072;-74
2023/02/12 09:23:34;;;;;;;18.58;9.20;;;7.70;99.90;;;;;;5007142;28;20117;-73
2023/02/12 09:26:03;;;;;;;18.85;8.77;;;7.70;99.90;;;;;;5006987;28;20487;-73
2023/02/12 09:28:29;;;;;;;20.77;9.13;;;7.80;99.90;;;;;;5009586;28;20080;-73
2023/02/12 09:30:54;;;;;;;18.05;8.73;;;7.80;99.90;;;;;;5011437;28;20022;-74
2023/02/12 09:33:21;;;;;;;18.20;8.85;;;7.80;99.90;;;;;;5011320;28;20030;-71
2023/02/12 09:35:47;;;;;;;19.52;8.90;;;7.90;99.90;;;;;;5012707;28;20051;-73
2023/02/12 09:38:12;;;;;;;18.48;8.95;;;8.00;99.90;;;;;;5012602;28;20106;-73
2023/02/12 09:41:04;;;;;;;18.20;8.90;;;8.00;99.90;;;;;;5008399;28;20072;-74
2023/02/12 09:44:03;;;;;;;13.90;8.20;;;8.00;99.90;;;;;;5010467;28;20030;-73
2023/02/12 09:46:37;;;;;;;17.75;8.45;;;8.00;99.90;;;;;;5002880;28;20035;-73
2023/02/12 09:49:08;;;;;;;16.33;8.55;;;8.10;99.90;;;;;;5009236;28;20040;-72
2023/02/12 09:51:35;;;;;;;15.75;8.07;;;8.10;99.90;;;;;;5008955;28;20072;-74
2023/02/12 09:54:10;;;;;;;15.13;8.00;;;8.10;99.90;;;;;;5024403;28;20050;-74
2023/02/12 09:56:39;;;;;;;15.52;8.05;;;8.10;99.90;;;;;;5010102;28;20030;-74
2023/02/12 09:59:07;;;;;;;17.48;8.85;;;8.10;99.90;;;;;;5011449;28;20051;-73
2023/02/12 10:01:33;;;;;;;14.23;7.68;;;8.10;99.90;;;;;;5011905;28;20140;-73
2023/02/12 10:03:59;;;;;;;15.90;7.18;;;8.10;99.90;;;;;;5010218;28;20081;-74
2023/02/12 10:06:29;;;;;;;12.07;6.90;;;8.20;99.90;;;;;;5010416;28;20084;-73
2023/02/12 10:09:04;;;;;;;12.43;7.15;;;8.30;99.90;;;;;;5011703;28;20030;-74
2023/02/12 10:12:15;;;;;;;15.55;8.23;;;8.30;99.90;;;;;;5013418;28;20113;-75
2023/02/12 10:15:22;;;;;;;15.30;8.82;;;8.30;99.90;;;;;;5012418;28;20377;-74
2023/02/12 10:18:11;;;;;;;12.18;6.97;;;8.40;99.90;;;;;;5011050;28;20037;-75
2023/02/12 10:21:05;;;;;;;13.27;7.93;;;8.50;99.90;;;;;;5014762;28;20041;-75
2023/02/12 10:23:40;;;;;;;13.45;7.07;;;8.60;99.90;;;;;;5012091;28;20026;-74
2023/02/12 10:26:24;;;;;;;14.25;7.80;;;8.70;99.90;;;;;;5011993;28;20054;-74
2023/02/12 10:28:50;;;;;;;;;;;8.80;99.90;;;;;;5012764;28;20090;-75
2023/02/12 10:31:29;;;;;;;15.07;7.85;;;8.80;99.90;;;;;;5008400;28;19936;-74
2023/02/12 10:33:56;;;;;;;18.42;8.73;;;8.80;99.90;;;;;;5018044;28;20046;-75
2023/02/12 10:36:36;;;;;;;13.55;8.60;;;8.90;99.90;;;;;;5010618;28;20538;-74
2023/02/12 10:39:13;;;;;;;15.20;7.38;;;8.90;99.90;;;;;;5010290;28;20026;-75
2023/02/12 10:42:02;;;;;;;19.27;10.57;;;8.90;99.90;;;;;;5010782;28;20479;-77
2023/02/12 10:44:28;;;;;;;18.67;10.80;;;8.90;99.90;;;;;;5009971;28;20089;-74
2023/02/12 10:46:54;;;;;;;23.67;12.63;;;8.90;99.90;;;;;;5008871;28;20060;-75
2023/02/12 10:49:20;;;;;;;25.92;13.82;;;8.90;99.90;;;;;;5009798;28;20487;-74
2023/02/12 10:52:04;;;;;;;26.40;15.32;;;8.90;99.90;;;;;;5006591;28;20046;-74
2023/02/12 10:54:36;;;;;;;28.75;15.98;;;8.90;99.90;;;;;;5008996;28;20092;-75
2023/02/12 10:57:20;;;;;;;33.15;17.52;;;8.90;99.90;;;;;;5010596;28;20030;-74
2023/02/12 10:59:46;;;;;;;;;;;8.90;99.90;;;;;;5009062;28;21238;-74
2023/02/12 11:02:30;;;;;;;26.58;14.27;;;8.90;99.90;;;;;;5008219;28;19909;-74
2023/02/12 11:04:58;;;;;;;27.20;16.10;;;8.90;99.90;;;;;;5009959;28;20042;-74
2023/02/12 11:07:25;;;;;;;30.35;15.55;;;8.90;99.90;;;;;;5011071;28;20038;-74
2023/02/12 11:09:53;;;;;;;28.23;14.95;;;8.90;99.90;;;;;;5003411;28;20076;-74
2023/02/12 11:12:24;;;;;;;34.95;18.05;;;8.90;99.90;;;;;;5003175;28;20026;-74
2023/02/12 11:15:13;;;;;;;29.27;15.10;;;8.90;99.90;;;;;;5009388;28;20049;-76
2023/02/12 11:17:42;;;;;;;24.95;13.88;;;8.90;99.90;;;;;;5006687;28;20975;-75
2023/02/12 11:20:20;;;;;;;23.50;13.32;;;9.00;99.90;;;;;;5004880;28;20037;-76
2023/02/12 11:22:56;;;;;;;16.75;9.75;;;9.00;99.90;;;;;;5008346;28;20033;-74
2023/02/12 11:25:24;;;;;;;18.33;11.00;;;8.90;99.90;;;;;;5006231;28;20040;-75
2023/02/12 11:28:19;;;;;;;31.85;17.45;;;8.90;99.90;;;;;;5008030;28;20018;-74
2023/02/12 11:30:55;;;;;;;31.40;16.77;;;9.00;99.90;;;;;;5009095;28;20029;-74
2023/02/12 11:33:25;;;;;;;34.30;18.13;;;9.00;99.90;;;;;;5007491;28;20052;-74
2023/02/12 11:36:00;;;;;;;34.95;18.75;;;9.00;99.90;;;;;;5008481;28;20027;-73
2023/02/12 11:38:36;;;;;;;30.45;16.70;;;9.00;99.90;;;;;;5009791;28;20026;-73
2023/02/12 11:41:06;;;;;;;33.90;18.02;;;9.00;99.90;;;;;;5009607;28;20025;-73
2023/02/12 11:43:37;;;;;;;34.33;17.60;;;9.00;99.90;;;;;;5015205;28;20556;-75
2023/02/12 11:46:03;;;;;;;36.92;19.35;;;9.00;99.90;;;;;;5007646;28;20485;-73
2023/02/12 11:48:37;;;;;;;34.75;18.75;;;9.10;99.90;;;;;;5008206;28;20449;-75
2023/02/12 11:51:07;;;;;;;41.03;20.00;;;9.00;99.90;;;;;;5008757;28;20113;-73
2023/02/12 11:53:39;;;;;;;39.95;19.10;;;9.00;99.90;;;;;;5009001;28;20567;-72
2023/02/12 11:56:09;;;;;;;38.80;19.00;;;9.00;99.90;;;;;;5005615;28;20038;-74
2023/02/12 11:58:34;;;;;;;37.95;17.30;;;9.00;99.90;;;;;;5007612;28;20059;-72
2023/02/12 12:01:02;;;;;;;39.55;19.33;;;9.00;99.90;;;;;;5009330;28;20044;-72
2023/02/12 12:03:37;;;;;;;39.03;18.27;;;9.00;99.90;;;;;;5008697;28;20037;-73
2023/02/12 12:06:15;;;;;;;35.67;17.85;;;9.00;99.90;;;;;;5008647;28;20049;-73
2023/02/12 12:08:50;;;;;;;35.95;17.27;;;9.00;99.90;;;;;;5009722;28;20021;-74
2023/02/12 12:11:27;;;;;;;33.55;15.90;;;9.00;99.90;;;;;;5013502;28;20526;-72
2023/02/12 12:14:08;;;;;;;30.67;14.93;;;9.00;99.90;;;;;;5008129;28;20057;-74
2023/02/12 12:20:20;;;;;;;20.55;10.80;;;9.00;99.90;;;;;;5012156;28;20041;-74
2023/02/12 12:23:20;;;;;;;23.35;12.00;;;9.00;99.90;;;;;;4990930;28;20037;-73
2023/02/12 12:25:54;;;;;;;23.30;12.27;;;9.10;99.90;;;;;;5009112;28;20035;-74
2023/02/12 12:28:56;;;;;;;23.38;11.95;;;9.20;99.90;;;;;;5013790;28;20045;-73
2023/02/12 12:31:39;;;;;;;21.83;11.02;;;9.20;99.90;;;;;;5012198;28;20053;-74
2023/02/12 12:34:12;;;;;;;25.27;12.75;;;9.10;99.90;;;;;;5010370;28;20045;-74
2023/02/12 12:37:01;;;;;;;24.80;13.60;;;9.10;99.90;;;;;;5013460;28;20061;-75
2023/02/12 12:39:48;;;;;;;25.95;13.93;;;9.10;99.90;;;;;;5011847;28;20130;-70
2023/02/12 12:42:45;;;;;;;27.42;15.07;;;9.10;99.90;;;;;;5010640;28;20042;-71
2023/02/12 12:45:53;;;;;;;30.75;15.48;;;9.10;99.90;;;;;;5011883;28;20023;-74
2023/02/12 12:48:47;;;;;;;31.42;15.65;;;9.10;99.90;;;;;;5028703;28;20086;-73
2023/02/12 12:51:56;;;;;;;34.10;17.55;;;9.10;99.90;;;;;;5011525;28;20058;-72
2023/02/12 12:54:42;;;;;;;33.78;16.45;;;9.10;99.90;;;;;;5014228;28;20042;-73
2023/02/12 12:57:16;;;;;;;34.17;17.48;;;9.10;99.90;;;;;;5013802;28;20109;-72
2023/02/12 12:59:58;;;;;;;38.15;18.63;;;9.10;99.90;;;;;;5011628;28;20038;-74
2023/02/12 13:02:52;;;;;;;31.90;15.25;;;9.10;99.90;;;;;;5014009;28;20046;-74
2023/02/12 13:05:46;;;;;;;20.13;10.73;;;9.10;99.90;;;;;;5021007;28;20130;-72
2023/02/12 13:08:49;;;;;;;11.43;6.07;;;9.00;99.90;;;;;;5015172;28;20022;-77